sensor_id;sensor_type;location;lat;lon;timestamp;P1;durP1;ratioP1;P2;durP2;ratioP2
46230;SDS011;31949;51.404;-0.038;2023-07-13T00:01:09;6.32;;;2.53;;
46230;SDS011;31949;51.404;-0.038;2023-07-13T00:03:37;4.97;;;1.67;;
46230;SDS011;31949;51.404;-0.038;2023-07-13T00:06:08;4.63;;;2.40;;
46230;SDS011;31949;51.404;-0.038;2023-07-13T00:08:36;3.42;;;2.00;;
46230;SDS011;31949;51.404;-0.038;2023-07-13T00:11:03;6.68;;;2.53;;
46230;SDS011;31949;51.404;-0.038;2023-07-13T00:13:31;4.88;;;2.55;;
46230;SDS011;31949;51.404;-0.038;2023-07-13T00:15:58;4.28;;;2.45;;
46230;SDS011;31949;51.404;-0.038;2023-07-13T00:18:26;6.38;;;2.33;;
46230;SDS011;31949;51.404;-0.038;2023-07-13T00:20:57;4.55;;;1.98;;
46230;SDS011;31949;51.404;-0.038;2023-07-13T00:23:32;2.97;;;2.15;;
46230;SDS011;31949;51.404;-0.038;2023-07-13T00:26:01;6.95;;;2.00;;
46230;SDS011;31949;51.404;-0.038;2023-07-13T00:28:29;3.70;;;1.88;;
46230;SDS011;31949;51.404;-0.038;2023-07-13T00:30:57;6.60;;;2.30;;
46230;SDS011;31949;51.404;-0.038;2023-07-13T00:33:25;4.85;;;2.13;;
46230;SDS011;31949;51.404;-0.038;2023-07-13T00:35:54;6.40;;;2.60;;
46230;SDS011;31949;51.404;-0.038;2023-07-13T00:38:22;5.40;;;2.20;;
46230;SDS011;31949;51.404;-0.038;2023-07-13T00:40:50;6.82;;;2.30;;
46230;SDS011;31949;51.404;-0.038;2023-07-13T00:43:18;10.30;;;2.53;;
46230;SDS011;31949;51.404;-0.038;2023-07-13T00:48:17;4.00;;;2.83;;
46230;SDS011;31949;51.404;-0.038;2023-07-13T00:50:48;4.75;;;2.33;;
46230;SDS011;31949;51.404;-0.038;2023-07-13T00:53:19;4.95;;;1.83;;
46230;SDS011;31949;51.404;-0.038;2023-07-13T00:55:47;3.03;;;1.90;;
46230;SDS011;31949;51.404;-0.038;2023-07-13T00:58:16;5.72;;;2.72;;
46230;SDS011;31949;51.404;-0.038;2023-07-13T01:00:44;6.38;;;2.28;;
46230;SDS011;31949;51.404;-0.038;2023-07-13T01:03:13;6.90;;;2.60;;
46230;SDS011;31949;51.404;-0.038;2023-07-13T01:05:41;6.57;;;2.50;;
46230;SDS011;31949;51.404;-0.038;2023-07-13T01:08:09;7.22;;;2.30;;
46230;SDS011;31949;51.404;-0.038;2023-07-13T01:10:36;5.95;;;2.20;;
46230;SDS011;31949;51.404;-0.038;2023-07-13T01:13:07;7.63;;;3.28;;
46230;SDS011;31949;51.404;-0.038;2023-07-13T01:15:39;7.60;;;2.85;;
46230;SDS011;31949;51.404;-0.038;2023-07-13T01:18:12;5.47;;;1.63;;
46230;SDS011;31949;51.404;-0.038;2023-07-13T01:20:56;6.57;;;2.70;;
46230;SDS011;31949;51.404;-0.038;2023-07-13T01:23:28;5.80;;;2.20;;
46230;SDS011;31949;51.404;-0.038;2023-07-13T01:25:56;9.13;;;2.80;;
46230;SDS011;31949;51.404;-0.038;2023-07-13T01:28:25;5.80;;;2.03;;
46230;SDS011;31949;51.404;-0.038;2023-07-13T01:30:54;8.05;;;2.90;;
46230;SDS011;31949;51.404;-0.038;2023-07-13T01:33:23;3.90;;;2.03;;
46230;SDS011;31949;51.404;-0.038;2023-07-13T01:35:51;7.65;;;2.25;;
46230;SDS011;31949;51.404;-0.038;2023-07-13T01:38:19;5.75;;;2.40;;
46230;SDS011;31949;51.404;-0.038;2023-07-13T01:40:48;2.45;;;1.70;;
46230;SDS011;31949;51.404;-0.038;2023-07-13T01:43:15;3.70;;;2.33;;
46230;SDS011;31949;51.404;-0.038;2023-07-13T01:45:43;5.80;;;2.60;;
46230;SDS011;31949;51.404;-0.038;2023-07-13T01:48:12;6.32;;;2.30;;
46230;SDS011;31949;51.404;-0.038;2023-07-13T01:50:40;10.18;;;2.90;;
46230;SDS011;31949;51.404;-0.038;2023-07-13T01:53:08;5.05;;;1.73;;
46230;SDS011;31949;51.404;-0.038;2023-07-13T01:55:35;5.57;;;2.17;;
46230;SDS011;31949;51.404;-0.038;2023-07-13T01:58:04;7.95;;;2.53;;
46230;SDS011;31949;51.404;-0.038;2023-07-13T02:00:31;5.03;;;2.10;;
46230;SDS011;31949;51.404;-0.038;2023-07-13T02:03:01;4.80;;;2.08;;
46230;SDS011;31949;51.404;-0.038;2023-07-13T02:05:31;4.38;;;2.85;;
46230;SDS011;31949;51.404;-0.038;2023-07-13T02:07:58;7.75;;;2.40;;
46230;SDS011;31949;51.404;-0.038;2023-07-13T02:10:26;5.50;;;2.42;;
46230;SDS011;31949;51.404;-0.038;2023-07-13T02:12:53;5.85;;;2.10;;
46230;SDS011;31949;51.404;-0.038;2023-07-13T02:15:20;5.18;;;2.40;;
46230;SDS011;31949;51.404;-0.038;2023-07-13T02:17:47;6.07;;;2.63;;
46230;SDS011;31949;51.404;-0.038;2023-07-13T02:20:15;3.58;;;2.22;;
46230;SDS011;31949;51.404;-0.038;2023-07-13T02:22:42;9.13;;;2.60;;
46230;SDS011;31949;51.404;-0.038;2023-07-13T02:25:09;5.75;;;1.98;;
46230;SDS011;31949;51.404;-0.038;2023-07-13T02:27:36;7.20;;;2.33;;
46230;SDS011;31949;51.404;-0.038;2023-07-13T02:30:04;5.78;;;2.00;;
46230;SDS011;31949;51.404;-0.038;2023-07-13T02:32:31;7.90;;;2.83;;
46230;SDS011;31949;51.404;-0.038;2023-07-13T02:34:59;6.60;;;2.10;;
46230;SDS011;31949;51.404;-0.038;2023-07-13T02:37:28;4.43;;;2.15;;
46230;SDS011;31949;51.404;-0.038;2023-07-13T02:39:56;10.15;;;2.97;;
46230;SDS011;31949;51.404;-0.038;2023-07-13T02:42:23;6.78;;;2.45;;
46230;SDS011;31949;51.404;-0.038;2023-07-13T02:44:51;5.10;;;2.83;;
46230;SDS011;31949;51.404;-0.038;2023-07-13T02:47:18;5.50;;;2.38;;
46230;SDS011;31949;51.404;-0.038;2023-07-13T02:49:45;6.63;;;2.22;;
46230;SDS011;31949;51.404;-0.038;2023-07-13T02:52:12;6.40;;;2.90;;
46230;SDS011;31949;51.404;-0.038;2023-07-13T02:54:39;6.70;;;2.47;;
46230;SDS011;31949;51.404;-0.038;2023-07-13T02:57:07;8.18;;;2.70;;
46230;SDS011;31949;51.404;-0.038;2023-07-13T02:59:34;6.35;;;2.60;;
46230;SDS011;31949;51.404;-0.038;2023-07-13T03:02:02;8.75;;;2.03;;
46230;SDS011;31949;51.404;-0.038;2023-07-13T03:04:29;5.65;;;2.53;;
46230;SDS011;31949;51.404;-0.038;2023-07-13T03:06:57;5.10;;;2.55;;
46230;SDS011;31949;51.404;-0.038;2023-07-13T03:09:32;4.22;;;2.42;;
46230;SDS011;31949;51.404;-0.038;2023-07-13T03:12:02;7.55;;;3.35;;
46230;SDS011;31949;51.404;-0.038;2023-07-13T03:14:31;3.65;;;1.90;;
46230;SDS011;31949;51.404;-0.038;2023-07-13T03:17:00;5.70;;;2.53;;
46230;SDS011;31949;51.404;-0.038;2023-07-13T03:19:30;3.63;;;2.03;;
46230;SDS011;31949;51.404;-0.038;2023-07-13T03:21:58;4.40;;;1.90;;
46230;SDS011;31949;51.404;-0.038;2023-07-13T03:24:25;4.72;;;1.95;;
46230;SDS011;31949;51.404;-0.038;2023-07-13T03:26:53;4.03;;;1.77;;
46230;SDS011;31949;51.404;-0.038;2023-07-13T03:29:21;2.78;;;1.42;;
46230;SDS011;31949;51.404;-0.038;2023-07-13T03:31:49;5.70;;;1.77;;
46230;SDS011;31949;51.404;-0.038;2023-07-13T03:34:17;5.22;;;1.80;;
46230;SDS011;31949;51.404;-0.038;2023-07-13T03:36:44;5.07;;;2.25;;
46230;SDS011;31949;51.404;-0.038;2023-07-13T03:39:12;5.97;;;2.00;;
46230;SDS011;31949;51.404;-0.038;2023-07-13T03:41:48;4.55;;;2.45;;
46230;SDS011;31949;51.404;-0.038;2023-07-13T03:44:16;4.30;;;2.20;;
46230;SDS011;31949;51.404;-0.038;2023-07-13T03:46:47;4.32;;;2.00;;
46230;SDS011;31949;51.404;-0.038;2023-07-13T03:49:14;4.72;;;2.25;;
46230;SDS011;31949;51.404;-0.038;2023-07-13T03:51:42;6.55;;;1.90;;
46230;SDS011;31949;51.404;-0.038;2023-07-13T03:54:09;4.07;;;2.30;;
46230;SDS011;31949;51.404;-0.038;2023-07-13T03:56:36;5.28;;;2.22;;
46230;SDS011;31949;51.404;-0.038;2023-07-13T03:59:06;6.60;;;2.50;;
46230;SDS011;31949;51.404;-0.038;2023-07-13T04:01:33;4.03;;;1.77;;
46230;SDS011;31949;51.404;-0.038;2023-07-13T04:04:01;4.40;;;2.17;;
46230;SDS011;31949;51.404;-0.038;2023-07-13T04:06:30;6.63;;;2.60;;
46230;SDS011;31949;51.404;-0.038;2023-07-13T04:08:59;3.72;;;1.92;;
46230;SDS011;31949;51.404;-0.038;2023-07-13T04:11:28;3.42;;;1.95;;
46230;SDS011;31949;51.404;-0.038;2023-07-13T04:13:56;5.55;;;2.65;;
46230;SDS011;31949;51.404;-0.038;2023-07-13T04:16:23;10.65;;;2.30;;
46230;SDS011;31949;51.404;-0.038;2023-07-13T04:18:51;6.45;;;2.70;;
46230;SDS011;31949;51.404;-0.038;2023-07-13T04:21:26;4.65;;;1.90;;
46230;SDS011;31949;51.404;-0.038;2023-07-13T04:23:56;2.53;;;2.22;;
46230;SDS011;31949;51.404;-0.038;2023-07-13T04:26:24;4.43;;;1.85;;
46230;SDS011;31949;51.404;-0.038;2023-07-13T04:28:51;4.60;;;2.08;;
46230;SDS011;31949;51.404;-0.038;2023-07-13T04:31:18;4.80;;;2.72;;
46230;SDS011;31949;51.404;-0.038;2023-07-13T04:33:47;3.90;;;1.90;;
46230;SDS011;31949;51.404;-0.038;2023-07-13T04:36:15;5.20;;;1.70;;
46230;SDS011;31949;51.404;-0.038;2023-07-13T04:38:42;5.80;;;2.45;;
46230;SDS011;31949;51.404;-0.038;2023-07-13T04:41:10;3.45;;;1.95;;
46230;SDS011;31949;51.404;-0.038;2023-07-13T04:43:38;3.17;;;1.63;;
46230;SDS011;31949;51.404;-0.038;2023-07-13T04:46:06;4.47;;;1.88;;
46230;SDS011;31949;51.404;-0.038;2023-07-13T04:48:37;2.15;;;1.85;;
46230;SDS011;31949;51.404;-0.038;2023-07-13T04:51:04;5.75;;;2.47;;
46230;SDS011;31949;51.404;-0.038;2023-07-13T04:53:33;3.78;;;1.90;;
46230;SDS011;31949;51.404;-0.038;2023-07-13T04:56:02;3.30;;;1.73;;
46230;SDS011;31949;51.404;-0.038;2023-07-13T04:58:30;5.07;;;2.40;;
46230;SDS011;31949;51.404;-0.038;2023-07-13T05:01:00;2.65;;;1.80;;
46230;SDS011;31949;51.404;-0.038;2023-07-13T05:03:32;17.13;;;3.38;;
46230;SDS011;31949;51.404;-0.038;2023-07-13T05:06:01;5.00;;;2.08;;
46230;SDS011;31949;51.404;-0.038;2023-07-13T05:08:30;5.05;;;2.33;;
46230;SDS011;31949;51.404;-0.038;2023-07-13T05:10:59;3.45;;;2.10;;
46230;SDS011;31949;51.404;-0.038;2023-07-13T05:13:27;6.15;;;2.30;;
46230;SDS011;31949;51.404;-0.038;2023-07-13T05:15:57;4.47;;;2.08;;
46230;SDS011;31949;51.404;-0.038;2023-07-13T05:18:26;5.00;;;2.40;;
46230;SDS011;31949;51.404;-0.038;2023-07-13T05:20:57;2.78;;;1.52;;
46230;SDS011;31949;51.404;-0.038;2023-07-13T05:23:26;6.00;;;2.10;;
46230;SDS011;31949;51.404;-0.038;2023-07-13T05:25:54;7.95;;;2.40;;
46230;SDS011;31949;51.404;-0.038;2023-07-13T05:28:21;5.18;;;2.30;;
46230;SDS011;31949;51.404;-0.038;2023-07-13T05:30:49;4.40;;;2.00;;
46230;SDS011;31949;51.404;-0.038;2023-07-13T05:33:17;3.47;;;2.08;;
46230;SDS011;31949;51.404;-0.038;2023-07-13T05:35:44;4.35;;;2.13;;
46230;SDS011;31949;51.404;-0.038;2023-07-13T05:38:12;3.90;;;2.55;;
46230;SDS011;31949;51.404;-0.038;2023-07-13T05:40:39;4.07;;;2.00;;
46230;SDS011;31949;51.404;-0.038;2023-07-13T05:43:09;5.90;;;2.22;;
46230;SDS011;31949;51.404;-0.038;2023-07-13T05:45:36;7.45;;;1.95;;
46230;SDS011;31949;51.404;-0.038;2023-07-13T05:48:04;4.47;;;2.15;;
46230;SDS011;31949;51.404;-0.038;2023-07-13T05:50:32;7.20;;;2.10;;
46230;SDS011;31949;51.404;-0.038;2023-07-13T05:53:02;6.07;;;2.17;;
46230;SDS011;31949;51.404;-0.038;2023-07-13T05:55:30;5.78;;;2.22;;
46230;SDS011;31949;51.404;-0.038;2023-07-13T05:57:57;2.42;;;1.52;;
46230;SDS011;31949;51.404;-0.038;2023-07-13T06:00:25;2.85;;;2.05;;
46230;SDS011;31949;51.404;-0.038;2023-07-13T06:02:52;3.75;;;2.13;;
46230;SDS011;31949;51.404;-0.038;2023-07-13T06:05:20;3.15;;;2.20;;
46230;SDS011;31949;51.404;-0.038;2023-07-13T06:07:47;3.97;;;1.70;;
46230;SDS011;31949;51.404;-0.038;2023-07-13T06:10:14;6.65;;;2.38;;
46230;SDS011;31949;51.404;-0.038;2023-07-13T06:12:41;5.07;;;1.77;;
46230;SDS011;31949;51.404;-0.038;2023-07-13T06:15:09;2.78;;;1.77;;
46230;SDS011;31949;51.404;-0.038;2023-07-13T06:17:37;3.92;;;1.60;;
46230;SDS011;31949;51.404;-0.038;2023-07-13T06:20:04;4.50;;;2.10;;
46230;SDS011;31949;51.404;-0.038;2023-07-13T06:22:32;6.90;;;2.00;;
46230;SDS011;31949;51.404;-0.038;2023-07-13T06:24:59;5.32;;;1.60;;
46230;SDS011;31949;51.404;-0.038;2023-07-13T06:27:27;2.15;;;1.20;;
46230;SDS011;31949;51.404;-0.038;2023-07-13T06:29:56;3.72;;;1.92;;
46230;SDS011;31949;51.404;-0.038;2023-07-13T06:32:23;7.15;;;1.90;;
46230;SDS011;31949;51.404;-0.038;2023-07-13T06:34:51;5.20;;;2.22;;
46230;SDS011;31949;51.404;-0.038;2023-07-13T06:37:18;4.30;;;2.00;;
46230;SDS011;31949;51.404;-0.038;2023-07-13T06:39:46;5.28;;;1.88;;
46230;SDS011;31949;51.404;-0.038;2023-07-13T06:42:13;5.25;;;2.03;;
46230;SDS011;31949;51.404;-0.038;2023-07-13T06:44:42;4.18;;;1.70;;
46230;SDS011;31949;51.404;-0.038;2023-07-13T06:47:09;2.85;;;1.30;;
46230;SDS011;31949;51.404;-0.038;2023-07-13T06:49:37;2.85;;;1.40;;
46230;SDS011;31949;51.404;-0.038;2023-07-13T06:52:04;2.83;;;1.38;;
46230;SDS011;31949;51.404;-0.038;2023-07-13T06:54:32;5.50;;;1.88;;
46230;SDS011;31949;51.404;-0.038;2023-07-13T06:57:00;2.75;;;1.40;;
46230;SDS011;31949;51.404;-0.038;2023-07-13T06:59:27;3.15;;;1.25;;
46230;SDS011;31949;51.404;-0.038;2023-07-13T07:01:55;4.72;;;1.67;;
46230;SDS011;31949;51.404;-0.038;2023-07-13T07:04:22;3.35;;;1.52;;
46230;SDS011;31949;51.404;-0.038;2023-07-13T07:06:49;3.65;;;1.35;;
46230;SDS011;31949;51.404;-0.038;2023-07-13T07:09:16;5.63;;;1.33;;
46230;SDS011;31949;51.404;-0.038;2023-07-13T07:11:44;3.28;;;1.60;;
46230;SDS011;31949;51.404;-0.038;2023-07-13T07:14:28;2.60;;;1.67;;
46230;SDS011;31949;51.404;-0.038;2023-07-13T07:16:56;2.83;;;1.55;;
46230;SDS011;31949;51.404;-0.038;2023-07-13T07:19:25;5.20;;;1.80;;
46230;SDS011;31949;51.404;-0.038;2023-07-13T07:21:54;9.43;;;2.38;;
46230;SDS011;31949;51.404;-0.038;2023-07-13T07:24:21;7.70;;;1.98;;
46230;SDS011;31949;51.404;-0.038;2023-07-13T07:26:48;2.78;;;1.50;;
46230;SDS011;31949;51.404;-0.038;2023-07-13T07:29:19;4.68;;;2.00;;
46230;SDS011;31949;51.404;-0.038;2023-07-13T07:31:49;4.07;;;2.08;;
46230;SDS011;31949;51.404;-0.038;2023-07-13T07:34:31;4.50;;;2.13;;
46230;SDS011;31949;51.404;-0.038;2023-07-13T07:37:01;5.30;;;1.50;;
46230;SDS011;31949;51.404;-0.038;2023-07-13T07:39:31;11.20;;;1.67;;
46230;SDS011;31949;51.404;-0.038;2023-07-13T07:41:59;4.85;;;1.40;;
46230;SDS011;31949;51.404;-0.038;2023-07-13T07:44:26;6.38;;;1.40;;
46230;SDS011;31949;51.404;-0.038;2023-07-13T07:46:55;3.58;;;1.40;;
46230;SDS011;31949;51.404;-0.038;2023-07-13T07:49:22;3.33;;;1.13;;
46230;SDS011;31949;51.404;-0.038;2023-07-13T07:51:49;5.78;;;1.67;;
46230;SDS011;31949;51.404;-0.038;2023-07-13T07:54:17;5.90;;;1.42;;
46230;SDS011;31949;51.404;-0.038;2023-07-13T07:57:04;4.18;;;1.63;;
46230;SDS011;31949;51.404;-0.038;2023-07-13T07:59:36;1.65;;;1.23;;
46230;SDS011;31949;51.404;-0.038;2023-07-13T08:02:08;2.45;;;1.42;;
46230;SDS011;31949;51.404;-0.038;2023-07-13T08:04:57;3.78;;;1.85;;
46230;SDS011;31949;51.404;-0.038;2023-07-13T08:07:27;7.53;;;2.50;;
46230;SDS011;31949;51.404;-0.038;2023-07-13T08:09:54;8.07;;;1.90;;
46230;SDS011;31949;51.404;-0.038;2023-07-13T08:12:21;4.22;;;1.45;;
46230;SDS011;31949;51.404;-0.038;2023-07-13T08:14:52;4.30;;;1.20;;
46230;SDS011;31949;51.404;-0.038;2023-07-13T08:17:24;3.90;;;1.45;;
46230;SDS011;31949;51.404;-0.038;2023-07-13T08:19:52;2.70;;;1.20;;
46230;SDS011;31949;51.404;-0.038;2023-07-13T08:22:19;5.15;;;1.20;;
46230;SDS011;31949;51.404;-0.038;2023-07-13T08:24:46;4.95;;;1.38;;
46230;SDS011;31949;51.404;-0.038;2023-07-13T08:27:22;2.78;;;1.33;;
46230;SDS011;31949;51.404;-0.038;2023-07-13T08:29:50;4.53;;;1.10;;
46230;SDS011;31949;51.404;-0.038;2023-07-13T08:32:18;3.25;;;1.08;;
46230;SDS011;31949;51.404;-0.038;2023-07-13T08:34:47;3.58;;;1.25;;
46230;SDS011;31949;51.404;-0.038;2023-07-13T08:37:15;2.88;;;1.20;;
46230;SDS011;31949;51.404;-0.038;2023-07-13T08:39:43;2.80;;;1.23;;
46230;SDS011;31949;51.404;-0.038;2023-07-13T08:45:08;6.05;;;1.50;;
46230;SDS011;31949;51.404;-0.038;2023-07-13T08:47:48;2.15;;;1.25;;
46230;SDS011;31949;51.404;-0.038;2023-07-13T08:50:26;2.70;;;1.35;;
46230;SDS011;31949;51.404;-0.038;2023-07-13T08:53:40;2.22;;;1.20;;
46230;SDS011;31949;51.404;-0.038;2023-07-13T08:56:16;2.13;;;1.30;;
46230;SDS011;31949;51.404;-0.038;2023-07-13T08:58:47;4.50;;;1.60;;
46230;SDS011;31949;51.404;-0.038;2023-07-13T09:01:30;3.28;;;1.00;;
46230;SDS011;31949;51.404;-0.038;2023-07-13T09:04:09;3.58;;;1.73;;
46230;SDS011;31949;51.404;-0.038;2023-07-13T09:09:40;3.85;;;1.70;;
46230;SDS011;31949;51.404;-0.038;2023-07-13T09:12:33;3.65;;;1.67;;
46230;SDS011;31949;51.404;-0.038;2023-07-13T09:15:45;3.92;;;1.70;;
46230;SDS011;31949;51.404;-0.038;2023-07-13T09:18:11;3.38;;;1.20;;
46230;SDS011;31949;51.404;-0.038;2023-07-13T09:20:50;4.10;;;1.75;;
46230;SDS011;31949;51.404;-0.038;2023-07-13T09:23:26;5.82;;;1.60;;
46230;SDS011;31949;51.404;-0.038;2023-07-13T09:25:59;2.92;;;1.40;;
46230;SDS011;31949;51.404;-0.038;2023-07-13T09:29:31;2.38;;;1.52;;
46230;SDS011;31949;51.404;-0.038;2023-07-13T09:31:49;5.25;;;2.08;;
46230;SDS011;31949;51.404;-0.038;2023-07-13T09:34:20;3.70;;;2.13;;
46230;SDS011;31949;51.404;-0.038;2023-07-13T09:36:48;5.32;;;1.60;;
46230;SDS011;31949;51.404;-0.038;2023-07-13T09:39:36;3.53;;;1.27;;
46230;SDS011;31949;51.404;-0.038;2023-07-13T09:49:58;3.55;;;1.30;;
46230;SDS011;31949;51.404;-0.038;2023-07-13T09:52:40;3.47;;;1.33;;
46230;SDS011;31949;51.404;-0.038;2023-07-13T09:55:25;2.50;;;1.13;;
46230;SDS011;31949;51.404;-0.038;2023-07-13T09:57:59;3.65;;;1.40;;
46230;SDS011;31949;51.404;-0.038;2023-07-13T10:00:55;2.45;;;1.10;;
46230;SDS011;31949;51.404;-0.038;2023-07-13T10:03:32;3.63;;;1.13;;
46230;SDS011;31949;51.404;-0.038;2023-07-13T10:06:18;3.35;;;1.10;;
46230;SDS011;31949;51.404;-0.038;2023-07-13T10:08:52;2.30;;;1.08;;
46230;SDS011;31949;51.404;-0.038;2023-07-13T10:11:21;1.58;;;1.33;;
46230;SDS011;31949;51.404;-0.038;2023-07-13T10:13:54;2.00;;;1.05;;
46230;SDS011;31949;51.404;-0.038;2023-07-13T10:16:28;4.53;;;1.30;;
46230;SDS011;31949;51.404;-0.038;2023-07-13T10:21:54;2.17;;;1.13;;
46230;SDS011;31949;51.404;-0.038;2023-07-13T10:24:48;1.85;;;1.10;;
46230;SDS011;31949;51.404;-0.038;2023-07-13T10:32:46;1.00;;;0.90;;
46230;SDS011;31949;51.404;-0.038;2023-07-13T10:35:15;2.97;;;1.13;;
46230;SDS011;31949;51.404;-0.038;2023-07-13T10:37:52;1.98;;;1.00;;
46230;SDS011;31949;51.404;-0.038;2023-07-13T10:40:47;1.73;;;1.10;;
46230;SDS011;31949;51.404;-0.038;2023-07-13T10:43:24;2.35;;;1.20;;
46230;SDS011;31949;51.404;-0.038;2023-07-13T10:45:55;1.58;;;1.00;;
46230;SDS011;31949;51.404;-0.038;2023-07-13T10:48:23;1.92;;;1.00;;
46230;SDS011;31949;51.404;-0.038;2023-07-13T10:50:51;1.58;;;1.00;;
46230;SDS011;31949;51.404;-0.038;2023-07-13T10:53:30;3.47;;;1.15;;
46230;SDS011;31949;51.404;-0.038;2023-07-13T10:56:00;3.22;;;1.30;;
46230;SDS011;31949;51.404;-0.038;2023-07-13T10:58:42;6.03;;;1.83;;
46230;SDS011;31949;51.404;-0.038;2023-07-13T11:01:19;3.90;;;1.45;;
46230;SDS011;31949;51.404;-0.038;2023-07-13T11:03:51;3.65;;;1.40;;
46230;SDS011;31949;51.404;-0.038;2023-07-13T11:08:58;1.45;;;0.90;;
46230;SDS011;31949;51.404;-0.038;2023-07-13T11:11:46;1.58;;;1.05;;
46230;SDS011;31949;51.404;-0.038;2023-07-13T11:22:48;3.03;;;1.13;;
46230;SDS011;31949;51.404;-0.038;2023-07-13T11:25:27;2.28;;;1.02;;
46230;SDS011;31949;51.404;-0.038;2023-07-13T11:30:49;2.13;;;1.00;;
46230;SDS011;31949;51.404;-0.038;2023-07-13T11:33:45;3.25;;;0.93;;
46230;SDS011;31949;51.404;-0.038;2023-07-13T11:36:23;2.25;;;1.40;;
46230;SDS011;31949;51.404;-0.038;2023-07-13T11:41:36;2.67;;;1.17;;
46230;SDS011;31949;51.404;-0.038;2023-07-13T11:44:14;2.20;;;0.93;;
46230;SDS011;31949;51.404;-0.038;2023-07-13T11:46:46;1.80;;;1.00;;
46230;SDS011;31949;51.404;-0.038;2023-07-13T11:49:22;2.47;;;1.15;;
46230;SDS011;31949;51.404;-0.038;2023-07-13T11:51:51;2.22;;;1.00;;
46230;SDS011;31949;51.404;-0.038;2023-07-13T11:54:24;3.20;;;1.60;;
46230;SDS011;31949;51.404;-0.038;2023-07-13T11:56:59;4.13;;;1.13;;
46230;SDS011;31949;51.404;-0.038;2023-07-13T11:59:51;2.45;;;1.48;;
46230;SDS011;31949;51.404;-0.038;2023-07-13T12:02:25;3.20;;;2.03;;
46230;SDS011;31949;51.404;-0.038;2023-07-13T12:04:54;7.63;;;1.80;;
46230;SDS011;31949;51.404;-0.038;2023-07-13T12:07:22;8.20;;;2.08;;
46230;SDS011;31949;51.404;-0.038;2023-07-13T12:09:49;3.60;;;1.20;;
46230;SDS011;31949;51.404;-0.038;2023-07-13T12:12:18;2.90;;;1.40;;
46230;SDS011;31949;51.404;-0.038;2023-07-13T12:14:52;4.20;;;1.83;;
46230;SDS011;31949;51.404;-0.038;2023-07-13T12:17:20;2.22;;;1.48;;
46230;SDS011;31949;51.404;-0.038;2023-07-13T12:19:50;4.85;;;1.60;;
46230;SDS011;31949;51.404;-0.038;2023-07-13T12:22:19;4.55;;;2.38;;
46230;SDS011;31949;51.404;-0.038;2023-07-13T12:24:47;3.28;;;2.20;;
46230;SDS011;31949;51.404;-0.038;2023-07-13T12:29:59;2.22;;;1.80;;
46230;SDS011;31949;51.404;-0.038;2023-07-13T12:32:31;3.25;;;1.90;;
46230;SDS011;31949;51.404;-0.038;2023-07-13T12:35:15;3.85;;;1.60;;
46230;SDS011;31949;51.404;-0.038;2023-07-13T12:37:48;2.80;;;1.38;;
46230;SDS011;31949;51.404;-0.038;2023-07-13T12:40:18;3.70;;;1.42;;
46230;SDS011;31949;51.404;-0.038;2023-07-13T12:42:49;2.58;;;1.10;;
46230;SDS011;31949;51.404;-0.038;2023-07-13T12:45:22;3.13;;;1.38;;
46230;SDS011;31949;51.404;-0.038;2023-07-13T12:47:56;2.67;;;1.20;;
46230;SDS011;31949;51.404;-0.038;2023-07-13T12:50:29;2.10;;;1.35;;
46230;SDS011;31949;51.404;-0.038;2023-07-13T12:55:30;3.13;;;1.30;;
46230;SDS011;31949;51.404;-0.038;2023-07-13T12:57:59;2.35;;;1.25;;
46230;SDS011;31949;51.404;-0.038;2023-07-13T13:00:32;3.15;;;1.40;;
46230;SDS011;31949;51.404;-0.038;2023-07-13T13:06:01;2.38;;;0.98;;
46230;SDS011;31949;51.404;-0.038;2023-07-13T13:08:32;1.60;;;1.25;;
46230;SDS011;31949;51.404;-0.038;2023-07-13T13:11:01;2.03;;;1.10;;
46230;SDS011;31949;51.404;-0.038;2023-07-13T13:13:29;2.35;;;1.60;;
46230;SDS011;31949;51.404;-0.038;2023-07-13T13:16:00;2.65;;;1.10;;
46230;SDS011;31949;51.404;-0.038;2023-07-13T13:18:43;2.00;;;1.33;;
46230;SDS011;31949;51.404;-0.038;2023-07-13T13:21:10;3.22;;;1.15;;
46230;SDS011;31949;51.404;-0.038;2023-07-13T13:23:38;3.00;;;1.27;;
46230;SDS011;31949;51.404;-0.038;2023-07-13T13:26:13;2.17;;;1.20;;
46230;SDS011;31949;51.404;-0.038;2023-07-13T13:28:44;2.78;;;0.90;;
46230;SDS011;31949;51.404;-0.038;2023-07-13T13:31:12;1.27;;;0.93;;
46230;SDS011;31949;51.404;-0.038;2023-07-13T13:33:40;0.80;;;0.80;;
46230;SDS011;31949;51.404;-0.038;2023-07-13T13:36:17;3.63;;;1.20;;
46230;SDS011;31949;51.404;-0.038;2023-07-13T13:38:47;3.03;;;1.30;;
46230;SDS011;31949;51.404;-0.038;2023-07-13T13:41:15;3.42;;;1.13;;
46230;SDS011;31949;51.404;-0.038;2023-07-13T13:43:44;5.68;;;1.77;;
46230;SDS011;31949;51.404;-0.038;2023-07-13T13:46:16;1.95;;;1.27;;
46230;SDS011;31949;51.404;-0.038;2023-07-13T13:48:45;3.72;;;1.17;;
46230;SDS011;31949;51.404;-0.038;2023-07-13T13:51:17;2.28;;;1.30;;
46230;SDS011;31949;51.404;-0.038;2023-07-13T13:53:47;2.47;;;1.23;;
46230;SDS011;31949;51.404;-0.038;2023-07-13T13:56:15;1.98;;;1.63;;
46230;SDS011;31949;51.404;-0.038;2023-07-13T13:58:44;1.95;;;1.45;;
46230;SDS011;31949;51.404;-0.038;2023-07-13T14:01:13;2.92;;;1.50;;
46230;SDS011;31949;51.404;-0.038;2023-07-13T14:03:47;2.75;;;1.90;;
46230;SDS011;31949;51.404;-0.038;2023-07-13T14:06:20;3.75;;;1.55;;
46230;SDS011;31949;51.404;-0.038;2023-07-13T14:08:47;6.50;;;2.10;;
46230;SDS011;31949;51.404;-0.038;2023-07-13T14:11:16;4.25;;;1.75;;
46230;SDS011;31949;51.404;-0.038;2023-07-13T14:13:49;3.40;;;1.98;;
46230;SDS011;31949;51.404;-0.038;2023-07-13T14:16:22;3.42;;;1.67;;
46230;SDS011;31949;51.404;-0.038;2023-07-13T14:18:54;5.40;;;1.63;;
46230;SDS011;31949;51.404;-0.038;2023-07-13T14:21:25;3.10;;;1.40;;
46230;SDS011;31949;51.404;-0.038;2023-07-13T14:23:54;1.95;;;1.60;;
46230;SDS011;31949;51.404;-0.038;2023-07-13T14:26:22;2.97;;;1.58;;
46230;SDS011;31949;51.404;-0.038;2023-07-13T14:28:55;3.20;;;1.70;;
46230;SDS011;31949;51.404;-0.038;2023-07-13T14:31:24;1.65;;;1.05;;
46230;SDS011;31949;51.404;-0.038;2023-07-13T14:33:56;4.57;;;1.60;;
46230;SDS011;31949;51.404;-0.038;2023-07-13T14:36:28;2.38;;;1.27;;
46230;SDS011;31949;51.404;-0.038;2023-07-13T14:38:58;2.20;;;1.50;;
46230;SDS011;31949;51.404;-0.038;2023-07-13T14:41:27;2.80;;;1.25;;
46230;SDS011;31949;51.404;-0.038;2023-07-13T14:43:55;3.28;;;1.35;;
46230;SDS011;31949;51.404;-0.038;2023-07-13T14:46:28;3.55;;;1.40;;
46230;SDS011;31949;51.404;-0.038;2023-07-13T14:49:00;3.17;;;1.30;;
46230;SDS011;31949;51.404;-0.038;2023-07-13T14:51:34;4.85;;;1.50;;
46230;SDS011;31949;51.404;-0.038;2023-07-13T14:54:02;2.72;;;1.52;;
46230;SDS011;31949;51.404;-0.038;2023-07-13T14:56:31;3.65;;;1.83;;
46230;SDS011;31949;51.404;-0.038;2023-07-13T14:58:58;2.17;;;1.48;;
46230;SDS011;31949;51.404;-0.038;2023-07-13T15:01:26;1.42;;;1.33;;
46230;SDS011;31949;51.404;-0.038;2023-07-13T15:03:53;5.82;;;1.83;;
46230;SDS011;31949;51.404;-0.038;2023-07-13T15:06:21;5.70;;;1.90;;
46230;SDS011;31949;51.404;-0.038;2023-07-13T15:08:48;3.88;;;1.52;;
46230;SDS011;31949;51.404;-0.038;2023-07-13T15:11:15;5.07;;;2.00;;
46230;SDS011;31949;51.404;-0.038;2023-07-13T15:13:43;5.70;;;2.20;;
46230;SDS011;31949;51.404;-0.038;2023-07-13T15:16:15;3.72;;;1.83;;
46230;SDS011;31949;51.404;-0.038;2023-07-13T15:18:51;4.25;;;1.90;;
46230;SDS011;31949;51.404;-0.038;2023-07-13T15:21:22;2.60;;;1.85;;
46230;SDS011;31949;51.404;-0.038;2023-07-13T15:23:51;3.53;;;1.70;;
46230;SDS011;31949;51.404;-0.038;2023-07-13T15:26:21;3.83;;;2.03;;
46230;SDS011;31949;51.404;-0.038;2023-07-13T15:28:49;3.78;;;1.77;;
46230;SDS011;31949;51.404;-0.038;2023-07-13T15:31:23;2.45;;;1.80;;
46230;SDS011;31949;51.404;-0.038;2023-07-13T15:33:55;2.72;;;1.55;;
46230;SDS011;31949;51.404;-0.038;2023-07-13T15:36:24;4.72;;;2.03;;
46230;SDS011;31949;51.404;-0.038;2023-07-13T15:38:56;4.88;;;1.92;;
46230;SDS011;31949;51.404;-0.038;2023-07-13T15:41:25;3.70;;;2.05;;
46230;SDS011;31949;51.404;-0.038;2023-07-13T15:43:55;3.85;;;2.50;;